OOCL Long Beach — VRYO4 — position and weather

sailwx.info

Track history (hours):
 
Tides and Currents Weather Stations Pressure Air Temp Water Temp Dewpoint Dewpoint Depression Visibility Wind Speed Wind Dir Waves Ship Positions

OOCL Long Beach

Last reported at 2017-Feb-21 08:18 UTC. Time now 2017-Feb-28 07:53 UTC.
Position N 38°10' W 124°25'.

Length 323 m; beam 42.8 m; draft 14.5 m.

Type: Cargo ship. MMSI: 477316000.

Date/timePositionNaut miles runAvg speedWind from/ knotsBaromVisibWave heightAir tempDewpointWater temp
2017-Feb-21 08:18N 38°10' W 124°25'912.5
2017-Feb-21 07:33N 38°10' W 124°13'1212.4
2017-Feb-21 06:33N 38°10' W 123°58'1312.6
2017-Feb-21 05:33N 38°10' W 123°42'1413.9
2017-Feb-21 04:33N 38°10' W 123°24'1514.8
2017-Feb-21 03:33N 38°00' W 123°10'1515.4
2017-Feb-21 02:34N 37°52' W 122°54'1413.8
2017-Feb-21 01:33N 37°46' W 122°38'1212.0
2017-Feb-21 00:33N 37°49' W 122°23'3 2.5
2017-Feb-20 23:32N 37°49' W 122°20'0 0.0
2017-Feb-20 22:32N 37°49' W 122°20'0 0.0
2017-Feb-20 21:32N 37°49' W 122°20'0 0.0
2017-Feb-20 20:32N 37°49' W 122°20'0 0.0
2017-Feb-20 19:32N 37°49' W 122°20'0 0.0
2017-Feb-20 18:32N 37°49' W 122°20'0 0.0
2017-Feb-20 17:32N 37°49' W 122°20'0 0.0
2017-Feb-20 16:32N 37°49' W 122°20'0 0.0
2017-Feb-20 15:32N 37°49' W 122°20'0 0.0
2017-Feb-20 14:32N 37°49' W 122°20'0 0.0
2017-Feb-20 13:32N 37°49' W 122°20'0 0.0
2017-Feb-20 12:32N 37°49' W 122°20'0 0.0
2017-Feb-20 11:32N 37°49' W 122°20'0 0.0
2017-Feb-20 10:32N 37°49' W 122°20'0 0.0
2017-Feb-20 09:32N 37°49' W 122°20'0 0.0
2017-Feb-20 08:32N 37°49' W 122°20'0 0.0
2017-Feb-20 07:32N 37°49' W 122°20'0 0.0
2017-Feb-20 06:32N 37°49' W 122°20'0 0.0
2017-Feb-20 05:32N 37°49' W 122°20'0 0.0
2017-Feb-20 04:32N 37°49' W 122°20'0 0.0
2017-Feb-20 03:32N 37°49' W 122°20'0 0.0
2017-Feb-20 02:32N 37°49' W 122°20'0 0.0
2017-Feb-20 01:32N 37°49' W 122°20'0 0.0
2017-Feb-20 00:32N 37°49' W 122°20'0 0.0
2017-Feb-19 23:32N 37°49' W 122°20'0 0.0
2017-Feb-19 22:32N 37°49' W 122°20'0 0.0
2017-Feb-19 21:32N 37°49' W 122°20'0 0.0
2017-Feb-19 20:32N 37°49' W 122°20'0 0.0
2017-Feb-19 19:32N 37°49' W 122°20'0 0.0
2017-Feb-19 18:32N 37°49' W 122°20'0 0.0
2017-Feb-19 17:32N 37°49' W 122°20'0 0.0
2017-Feb-19 16:32N 37°49' W 122°20'0 0.0
2017-Feb-19 15:32N 37°49' W 122°20'0 0.0
2017-Feb-19 14:32N 37°49' W 122°20'0 0.0
2017-Feb-19 13:32N 37°49' W 122°20'1 1.4
2017-Feb-19 12:33N 37°48' W 122°21'2 2.1
2017-Feb-19 11:33N 37°46' W 122°21'0 0.0
2017-Feb-19 10:33N 37°46' W 122°21'0 0.1
2017-Feb-19 09:33N 37°46' W 122°21'0 0.2
2017-Feb-19 08:33N 37°46' W 122°21'0 0.2
2017-Feb-19 07:33N 37°46' W 122°21'0 0.0
2017-Feb-19 06:33N 37°46' W 122°22'0 0.0
2017-Feb-19 05:33N 37°46' W 122°22'0 0.0
2017-Feb-19 04:33N 37°46' W 122°21'0 0.2
2017-Feb-19 03:33N 37°46' W 122°21'0 0.1
2017-Feb-19 02:33N 37°46' W 122°21'0 0.0
2017-Feb-19 01:33N 37°46' W 122°21'0 0.4
2017-Feb-19 00:33N 37°46' W 122°21'8 7.6
2017-Feb-18 23:34N 37°48' W 122°30'1010.5
2017-Feb-18 22:34N 37°41' W 122°40'1110.7
2017-Feb-18 21:34N 37°31' W 122°40'1210.9
2017-Feb-18 20:25N 37°18' W 122°38'1011.2
2017-Feb-18 19:34N 37°09' W 122°34'1211.8
2017-Feb-18 18:33N 36°58' W 122°29'1212.2
2017-Feb-18 17:34N 36°46' W 122°26'1211.6
2017-Feb-18 16:34N 36°35' W 122°21'10 9.9
2017-Feb-18 15:34N 36°26' W 122°17'10 9.8
2017-Feb-18 14:34N 36°17' W 122°12'1010.5
2017-Feb-18 13:33N 36°07' W 122°07'1010.5
2017-Feb-18 12:33N 35°58' W 122°01'1110.9
2017-Feb-18 11:33N 35°48' W 121°56'1212.0
2017-Feb-18 10:33N 35°37' W 121°51'1312.4
2017-Feb-18 09:30N 35°25' W 121°45'20310.6
2017-Feb-17 14:17N 33°39' W 118°14'6 7.9
2017-Feb-17 13:33N 33°44' W 118°13'1 0.8
2017-Feb-17 12:31N 33°45' W 118°13'0 0.0
2017-Feb-17 10:31N 33°45' W 118°13'0 0.0
2017-Feb-17 08:07N 33°45' W 118°13'0 0.0
2017-Feb-17 07:31N 33°45' W 118°13'0 0.0
2017-Feb-17 06:31N 33°45' W 118°13'0 0.0
2017-Feb-17 05:31N 33°45' W 118°13'0 0.0
2017-Feb-17 04:31N 33°45' W 118°13'0 0.0
2017-Feb-17 03:31N 33°45' W 118°13'0 0.0
2017-Feb-17 02:31N 33°45' W 118°13'0 0.0
2017-Feb-17 01:31N 33°45' W 118°13'0 0.0
2017-Feb-17 00:31N 33°45' W 118°13'0 0.0
2017-Feb-16 23:31N 33°45' W 118°13'0 0.0
2017-Feb-16 22:31N 33°45' W 118°13'0 0.0
2017-Feb-16 21:31N 33°45' W 118°13'0 0.0
2017-Feb-16 20:31N 33°45' W 118°13'0 0.0
2017-Feb-16 19:25N 33°45' W 118°13'0 0.0
2017-Feb-16 18:28N 33°45' W 118°13'0 0.0
2017-Feb-16 17:31N 33°45' W 118°13'0 0.0
2017-Feb-16 16:31N 33°45' W 118°13'0 0.0
2017-Feb-16 15:31N 33°45' W 118°13'0 0.0
2017-Feb-16 14:28N 33°45' W 118°13'0 0.0
2017-Feb-16 13:31N 33°45' W 118°13'0 0.0
2017-Feb-16 12:31N 33°45' W 118°13'0 0.0
2017-Feb-16 11:31N 33°45' W 118°13'0 0.0
2017-Feb-16 10:31N 33°45' W 118°13'0 0.0
2017-Feb-16 09:31N 33°45' W 118°13'0 0.0
2017-Feb-16 08:31N 33°45' W 118°13'0 0.0
2017-Feb-16 07:31N 33°45' W 118°13'0 0.0
2017-Feb-16 06:25N 33°45' W 118°13'0 0.0
2017-Feb-16 05:28N 33°45' W 118°13'0 0.0
2017-Feb-16 04:31N 33°45' W 118°13'0 0.0
2017-Feb-16 03:31N 33°45' W 118°13'0 0.0
2017-Feb-16 02:31N 33°45' W 118°13'0 0.0
2017-Feb-16 01:31N 33°45' W 118°13'0 0.0
2017-Feb-16 00:31N 33°45' W 118°13'0 0.0
2017-Feb-15 23:31N 33°45' W 118°13'0 0.0
2017-Feb-15 22:31N 33°45' W 118°13'0 0.0
2017-Feb-15 21:31N 33°45' W 118°13'0 0.0
2017-Feb-15 20:31N 33°45' W 118°13'0 0.1
2017-Feb-15 19:31N 33°45' W 118°13'0 0.0
2017-Feb-15 18:28N 33°45' W 118°13'0 0.0
2017-Feb-15 17:31N 33°45' W 118°13'0 0.0
2017-Feb-15 16:31N 33°45' W 118°13'0 0.0
2017-Feb-15 15:31N 33°45' W 118°13'0 0.0
2017-Feb-15 14:31N 33°45' W 118°13'0 0.0
2017-Feb-15 13:31N 33°45' W 118°13'0 0.0
2017-Feb-15 12:28N 33°45' W 118°13'0 0.0
2017-Feb-15 11:31N 33°45' W 118°13'0 0.0
2017-Feb-15 10:31N 33°45' W 118°13'0 0.0
2017-Feb-15 09:31N 33°45' W 118°13'0 0.0
2017-Feb-15 08:31N 33°45' W 118°13'0 0.0
2017-Feb-15 07:31N 33°45' W 118°13'0 0.0
2017-Feb-15 06:31N 33°45' W 118°13'0 0.0
2017-Feb-15 05:28N 33°45' W 118°13'0 0.0
2017-Feb-15 04:31N 33°45' W 118°13'0 0.0
2017-Feb-15 03:31N 33°45' W 118°13'0 0.0
2017-Feb-15 02:31N 33°45' W 118°13'0 0.0
2017-Feb-15 01:31N 33°45' W 118°13'0 0.0
2017-Feb-15 00:31N 33°45' W 118°13'0 0.0
2017-Feb-14 23:31N 33°45' W 118°13'0 0.0
2017-Feb-14 22:28N 33°45' W 118°13'0 0.0
2017-Feb-14 21:22N 33°45' W 118°13'0 0.0
2017-Feb-14 20:31N 33°45' W 118°13'0 0.0
2017-Feb-14 19:28N 33°45' W 118°13'0 0.0
2017-Feb-14 18:31N 33°45' W 118°13'0 0.0
2017-Feb-14 17:31N 33°45' W 118°13'0 0.0
2017-Feb-14 16:31N 33°45' W 118°13'0 0.0
2017-Feb-14 15:31N 33°45' W 118°13'0 0.0
2017-Feb-14 14:31N 33°45' W 118°13'0 0.0
2017-Feb-14 13:31N 33°45' W 118°13'0 0.0
2017-Feb-14 12:31N 33°45' W 118°13'0 0.0
2017-Feb-14 11:31N 33°45' W 118°13'0 0.0
2017-Feb-14 10:31N 33°45' W 118°13'0 0.0
2017-Feb-14 09:31N 33°45' W 118°13'0 0.0
2017-Feb-14 08:28N 33°45' W 118°13'0 0.0
2017-Feb-14 07:31N 33°45' W 118°13'0 0.0
2017-Feb-14 06:31N 33°45' W 118°13'0 0.0
2017-Feb-14 05:31N 33°45' W 118°13'0 0.0
2017-Feb-14 04:31N 33°45' W 118°13'0 0.0
2017-Feb-14 03:31N 33°45' W 118°13'0 0.0
2017-Feb-14 02:31N 33°45' W 118°13'0 0.0
2017-Feb-14 01:31N 33°45' W 118°13'0 0.4
2017-Feb-14 00:33N 33°45' W 118°13'4 4.3
2017-Feb-13 23:34N 33°41' W 118°11'9 8.9
2017-Feb-13 22:33N 33°36' W 118°19'1111.4
2017-Feb-13 21:34N 33°37' W 118°33'1111.2
2017-Feb-13 20:33N 33°37' W 118°46'1111.5
2017-Feb-13 19:34N 33°38' W 119°00'1211.5
2017-Feb-13 18:33N 33°38' W 119°14'1212.1
2017-Feb-13 17:33N 33°38' W 119°28'2914.4
2017-Feb-13 15:31N 33°38' W 120°04'1515.8
2017-Feb-13 14:34N 33°39' W 120°22'2319.4
2017-Feb-13 13:22N 33°39' W 120°50'1619.1
2017-Feb-13 12:30N 33°39' W 121°09'2118.8
2017-Feb-13 11:24N 33°41' W 121°34'1819.0
2017-Feb-13 10:28N 33°43' W 121°55'1718.9
2017-Feb-13 09:32N 33°46' W 122°16'4018.8
2017-Feb-13 07:26N 33°50' W 123°04'1618.7
2017-Feb-13 06:33N 33°52' W 123°23'1918.9
2017-Feb-13 05:33N 33°54' W 123°46'1918.9
2017-Feb-13 04:33N 33°57' W 124°09'1918.6
2017-Feb-13 03:33N 33°59' W 124°31'1818.6
2017-Feb-13 02:33N 34°01' W 124°53'1817.7
2017-Feb-13 01:33N 34°05' W 125°14'1313.2
2017-Feb-13 00:34N 34°13' W 125°26'11 9.0
2017-Feb-12 23:23N 34°20' W 125°36'1814.4
2017-Feb-12 22:10N 34°30' W 125°53'914.1
2017-Feb-12 21:33N 34°35' W 126°02'1919.3
2017-Feb-12 20:33N 34°46' W 126°21'2018.8
2017-Feb-12 19:29N 34°60' W 126°40'3918.7
2017-Feb-12 17:25N 35°23' W 127°18'3820.0
2017-Feb-12 15:30N 35°45' W 127°56'43820.4
2017-Feb-11 18:00N 39°42' W 135°42'   180 / 151034.210.8 11.0 2.610.0
Track history (hours):
 
Tides and Currents Weather Stations Pressure Air Temp Water Temp Dewpoint Dewpoint Depression Visibility Wind Speed Wind Dir Waves Ship Positions

OOCL Long Beach

Last reported at 2017-Feb-21 08:18 UTC. Time now 2017-Feb-28 07:53 UTC.
Position N 38°10' W 124°25'.

Length 323 m; beam 42.8 m; draft 14.5 m.

Type: Cargo ship. MMSI: 477316000.

Date/timePositionNaut miles runAvg speedWind from/ knotsBaromVisibWave heightAir tempDewpointWater temp
2017-Feb-21 08:18N 38°10' W 124°25'912.5
2017-Feb-21 07:33N 38°10' W 124°13'1212.4
2017-Feb-21 06:33N 38°10' W 123°58'1312.6
2017-Feb-21 05:33N 38°10' W 123°42'1413.9
2017-Feb-21 04:33N 38°10' W 123°24'1514.8
2017-Feb-21 03:33N 38°00' W 123°10'1515.4
2017-Feb-21 02:34N 37°52' W 122°54'1413.8
2017-Feb-21 01:33N 37°46' W 122°38'1212.0
2017-Feb-21 00:33N 37°49' W 122°23'3 2.5
2017-Feb-20 23:32N 37°49' W 122°20'0 0.0
2017-Feb-20 22:32N 37°49' W 122°20'0 0.0
2017-Feb-20 21:32N 37°49' W 122°20'0 0.0
2017-Feb-20 20:32N 37°49' W 122°20'0 0.0
2017-Feb-20 19:32N 37°49' W 122°20'0 0.0
2017-Feb-20 18:32N 37°49' W 122°20'0 0.0
2017-Feb-20 17:32N 37°49' W 122°20'0 0.0
2017-Feb-20 16:32N 37°49' W 122°20'0 0.0
2017-Feb-20 15:32N 37°49' W 122°20'0 0.0
2017-Feb-20 14:32N 37°49' W 122°20'0 0.0
2017-Feb-20 13:32N 37°49' W 122°20'0 0.0
2017-Feb-20 12:32N 37°49' W 122°20'0 0.0
2017-Feb-20 11:32N 37°49' W 122°20'0 0.0
2017-Feb-20 10:32N 37°49' W 122°20'0 0.0
2017-Feb-20 09:32N 37°49' W 122°20'0 0.0
2017-Feb-20 08:32N 37°49' W 122°20'0 0.0
2017-Feb-20 07:32N 37°49' W 122°20'0 0.0
2017-Feb-20 06:32N 37°49' W 122°20'0 0.0
2017-Feb-20 05:32N 37°49' W 122°20'0 0.0
2017-Feb-20 04:32N 37°49' W 122°20'0 0.0
2017-Feb-20 03:32N 37°49' W 122°20'0 0.0
2017-Feb-20 02:32N 37°49' W 122°20'0 0.0
2017-Feb-20 01:32N 37°49' W 122°20'0 0.0
2017-Feb-20 00:32N 37°49' W 122°20'0 0.0
2017-Feb-19 23:32N 37°49' W 122°20'0 0.0
2017-Feb-19 22:32N 37°49' W 122°20'0 0.0
2017-Feb-19 21:32N 37°49' W 122°20'0 0.0
2017-Feb-19 20:32N 37°49' W 122°20'0 0.0
2017-Feb-19 19:32N 37°49' W 122°20'0 0.0
2017-Feb-19 18:32N 37°49' W 122°20'0 0.0
2017-Feb-19 17:32N 37°49' W 122°20'0 0.0
2017-Feb-19 16:32N 37°49' W 122°20'0 0.0
2017-Feb-19 15:32N 37°49' W 122°20'0 0.0
2017-Feb-19 14:32N 37°49' W 122°20'0 0.0
2017-Feb-19 13:32N 37°49' W 122°20'1 1.4
2017-Feb-19 12:33N 37°48' W 122°21'2 2.1
2017-Feb-19 11:33N 37°46' W 122°21'0 0.0
2017-Feb-19 10:33N 37°46' W 122°21'0 0.1
2017-Feb-19 09:33N 37°46' W 122°21'0 0.2
2017-Feb-19 08:33N 37°46' W 122°21'0 0.2
2017-Feb-19 07:33N 37°46' W 122°21'0 0.0
2017-Feb-19 06:33N 37°46' W 122°22'0 0.0
2017-Feb-19 05:33N 37°46' W 122°22'0 0.0
2017-Feb-19 04:33N 37°46' W 122°21'0 0.2
2017-Feb-19 03:33N 37°46' W 122°21'0 0.1
2017-Feb-19 02:33N 37°46' W 122°21'0 0.0
2017-Feb-19 01:33N 37°46' W 122°21'0 0.4
2017-Feb-19 00:33N 37°46' W 122°21'8 7.6
2017-Feb-18 23:34N 37°48' W 122°30'1010.5
2017-Feb-18 22:34N 37°41' W 122°40'1110.7
2017-Feb-18 21:34N 37°31' W 122°40'1210.9
2017-Feb-18 20:25N 37°18' W 122°38'1011.2
2017-Feb-18 19:34N 37°09' W 122°34'1211.8
2017-Feb-18 18:33N 36°58' W 122°29'1212.2
2017-Feb-18 17:34N 36°46' W 122°26'1211.6
2017-Feb-18 16:34N 36°35' W 122°21'10 9.9
2017-Feb-18 15:34N 36°26' W 122°17'10 9.8
2017-Feb-18 14:34N 36°17' W 122°12'1010.5
2017-Feb-18 13:33N 36°07' W 122°07'1010.5
2017-Feb-18 12:33N 35°58' W 122°01'1110.9
2017-Feb-18 11:33N 35°48' W 121°56'1212.0
2017-Feb-18 10:33N 35°37' W 121°51'1312.4
2017-Feb-18 09:30N 35°25' W 121°45'20310.6
2017-Feb-17 14:17N 33°39' W 118°14'6 7.9
2017-Feb-17 13:33N 33°44' W 118°13'1 0.8
2017-Feb-17 12:31N 33°45' W 118°13'0 0.0
2017-Feb-17 10:31N 33°45' W 118°13'0 0.0
2017-Feb-17 08:07N 33°45' W 118°13'0 0.0
2017-Feb-17 07:31N 33°45' W 118°13'0 0.0
2017-Feb-17 06:31N 33°45' W 118°13'0 0.0
2017-Feb-17 05:31N 33°45' W 118°13'0 0.0
2017-Feb-17 04:31N 33°45' W 118°13'0 0.0
2017-Feb-17 03:31N 33°45' W 118°13'0 0.0
2017-Feb-17 02:31N 33°45' W 118°13'0 0.0
2017-Feb-17 01:31N 33°45' W 118°13'0 0.0
2017-Feb-17 00:31N 33°45' W 118°13'0 0.0
2017-Feb-16 23:31N 33°45' W 118°13'0 0.0
2017-Feb-16 22:31N 33°45' W 118°13'0 0.0
2017-Feb-16 21:31N 33°45' W 118°13'0 0.0
2017-Feb-16 20:31N 33°45' W 118°13'0 0.0
2017-Feb-16 19:25N 33°45' W 118°13'0 0.0
2017-Feb-16 18:28N 33°45' W 118°13'0 0.0
2017-Feb-16 17:31N 33°45' W 118°13'0 0.0
2017-Feb-16 16:31N 33°45' W 118°13'0 0.0
2017-Feb-16 15:31N 33°45' W 118°13'0 0.0
2017-Feb-16 14:28N 33°45' W 118°13'0 0.0
2017-Feb-16 13:31N 33°45' W 118°13'0 0.0
2017-Feb-16 12:31N 33°45' W 118°13'0 0.0
2017-Feb-16 11:31N 33°45' W 118°13'0 0.0
2017-Feb-16 10:31N 33°45' W 118°13'0 0.0
2017-Feb-16 09:31N 33°45' W 118°13'0 0.0
2017-Feb-16 08:31N 33°45' W 118°13'0 0.0
2017-Feb-16 07:31N 33°45' W 118°13'0 0.0
2017-Feb-16 06:25N 33°45' W 118°13'0 0.0
2017-Feb-16 05:28N 33°45' W 118°13'0 0.0
2017-Feb-16 04:31N 33°45' W 118°13'0 0.0
2017-Feb-16 03:31N 33°45' W 118°13'0 0.0
2017-Feb-16 02:31N 33°45' W 118°13'0 0.0
2017-Feb-16 01:31N 33°45' W 118°13'0 0.0
2017-Feb-16 00:31N 33°45' W 118°13'0 0.0
2017-Feb-15 23:31N 33°45' W 118°13'0 0.0
2017-Feb-15 22:31N 33°45' W 118°13'0 0.0
2017-Feb-15 21:31N 33°45' W 118°13'0 0.0
2017-Feb-15 20:31N 33°45' W 118°13'0 0.1
2017-Feb-15 19:31N 33°45' W 118°13'0 0.0
2017-Feb-15 18:28N 33°45' W 118°13'0 0.0
2017-Feb-15 17:31N 33°45' W 118°13'0 0.0
2017-Feb-15 16:31N 33°45' W 118°13'0 0.0
2017-Feb-15 15:31N 33°45' W 118°13'0 0.0
2017-Feb-15 14:31N 33°45' W 118°13'0 0.0
2017-Feb-15 13:31N 33°45' W 118°13'0 0.0
2017-Feb-15 12:28N 33°45' W 118°13'0 0.0
2017-Feb-15 11:31N 33°45' W 118°13'0 0.0
2017-Feb-15 10:31N 33°45' W 118°13'0 0.0
2017-Feb-15 09:31N 33°45' W 118°13'0 0.0
2017-Feb-15 08:31N 33°45' W 118°13'0 0.0
2017-Feb-15 07:31N 33°45' W 118°13'0 0.0
2017-Feb-15 06:31N 33°45' W 118°13'0 0.0
2017-Feb-15 05:28N 33°45' W 118°13'0 0.0
2017-Feb-15 04:31N 33°45' W 118°13'0 0.0
2017-Feb-15 03:31N 33°45' W 118°13'0 0.0
2017-Feb-15 02:31N 33°45' W 118°13'0 0.0
2017-Feb-15 01:31N 33°45' W 118°13'0 0.0
2017-Feb-15 00:31N 33°45' W 118°13'0 0.0
2017-Feb-14 23:31N 33°45' W 118°13'0 0.0
2017-Feb-14 22:28N 33°45' W 118°13'0 0.0
2017-Feb-14 21:22N 33°45' W 118°13'0 0.0
2017-Feb-14 20:31N 33°45' W 118°13'0 0.0
2017-Feb-14 19:28N 33°45' W 118°13'0 0.0
2017-Feb-14 18:31N 33°45' W 118°13'0 0.0
2017-Feb-14 17:31N 33°45' W 118°13'0 0.0
2017-Feb-14 16:31N 33°45' W 118°13'0 0.0
2017-Feb-14 15:31N 33°45' W 118°13'0 0.0
2017-Feb-14 14:31N 33°45' W 118°13'0 0.0
2017-Feb-14 13:31N 33°45' W 118°13'0 0.0
2017-Feb-14 12:31N 33°45' W 118°13'0 0.0
2017-Feb-14 11:31N 33°45' W 118°13'0 0.0
2017-Feb-14 10:31N 33°45' W 118°13'0 0.0
2017-Feb-14 09:31N 33°45' W 118°13'0 0.0
2017-Feb-14 08:28N 33°45' W 118°13'0 0.0
2017-Feb-14 07:31N 33°45' W 118°13'0 0.0
2017-Feb-14 06:31N 33°45' W 118°13'0 0.0
2017-Feb-14 05:31N 33°45' W 118°13'0 0.0
2017-Feb-14 04:31N 33°45' W 118°13'0 0.0
2017-Feb-14 03:31N 33°45' W 118°13'0 0.0
2017-Feb-14 02:31N 33°45' W 118°13'0 0.0
2017-Feb-14 01:31N 33°45' W 118°13'0 0.4
2017-Feb-14 00:33N 33°45' W 118°13'4 4.3
2017-Feb-13 23:34N 33°41' W 118°11'9 8.9
2017-Feb-13 22:33N 33°36' W 118°19'1111.4
2017-Feb-13 21:34N 33°37' W 118°33'1111.2
2017-Feb-13 20:33N 33°37' W 118°46'1111.5
2017-Feb-13 19:34N 33°38' W 119°00'1211.5
2017-Feb-13 18:33N 33°38' W 119°14'1212.1
2017-Feb-13 17:33N 33°38' W 119°28'2914.4
2017-Feb-13 15:31N 33°38' W 120°04'1515.8
2017-Feb-13 14:34N 33°39' W 120°22'2319.4
2017-Feb-13 13:22N 33°39' W 120°50'1619.1
2017-Feb-13 12:30N 33°39' W 121°09'2118.8
2017-Feb-13 11:24N 33°41' W 121°34'1819.0
2017-Feb-13 10:28N 33°43' W 121°55'1718.9
2017-Feb-13 09:32N 33°46' W 122°16'4018.8
2017-Feb-13 07:26N 33°50' W 123°04'1618.7
2017-Feb-13 06:33N 33°52' W 123°23'1918.9
2017-Feb-13 05:33N 33°54' W 123°46'1918.9
2017-Feb-13 04:33N 33°57' W 124°09'1918.6
2017-Feb-13 03:33N 33°59' W 124°31'1818.6
2017-Feb-13 02:33N 34°01' W 124°53'1817.7
2017-Feb-13 01:33N 34°05' W 125°14'1313.2
2017-Feb-13 00:34N 34°13' W 125°26'11 9.0
2017-Feb-12 23:23N 34°20' W 125°36'1814.4
2017-Feb-12 22:10N 34°30' W 125°53'914.1
2017-Feb-12 21:33N 34°35' W 126°02'1919.3
2017-Feb-12 20:33N 34°46' W 126°21'2018.8
2017-Feb-12 19:29N 34°60' W 126°40'3918.7
2017-Feb-12 17:25N 35°23' W 127°18'3820.0
2017-Feb-12 15:30N 35°45' W 127°56'43820.4
2017-Feb-11 18:00N 39°42' W 135°42'   180 / 151034.210.8 11.0 2.610.0

Dump ship's entire track history